sensor_id;sensor_type;location;lat;lon;timestamp;pressure;altitude;pressure_sealevel;temperature;humidity
61506;BME280;47366;51.916;4.574;2022-09-09T00:00:43;100801.22;;;16.12;77.71
61506;BME280;47366;51.916;4.574;2022-09-09T00:03:24;100793.47;;;16.18;77.78
61506;BME280;47366;51.916;4.574;2022-09-09T00:06:14;100797.63;;;16.12;77.97
61506;BME280;47366;51.916;4.574;2022-09-09T00:09:10;100800.75;;;16.07;77.68
61506;BME280;47366;51.916;4.574;2022-09-09T00:11:43;100794.06;;;16.00;78.54
61506;BME280;47366;51.916;4.574;2022-09-09T00:14:27;100789.59;;;15.99;77.98
61506;BME280;47366;51.916;4.574;2022-09-09T00:17:04;100775.72;;;15.91;79.13
61506;BME280;47366;51.916;4.574;2022-09-09T00:19:41;100775.38;;;15.84;79.43
61506;BME280;47366;51.916;4.574;2022-09-09T00:22:20;100776.25;;;15.85;79.50
61506;BME280;47366;51.916;4.574;2022-09-09T00:24:53;100773.50;;;15.85;79.16
61506;BME280;47366;51.916;4.574;2022-09-09T00:27:30;100768.78;;;15.87;78.90
61506;BME280;47366;51.916;4.574;2022-09-09T00:32:49;100769.53;;;15.89;78.33
61506;BME280;47366;51.916;4.574;2022-09-09T00:35:32;100762.38;;;15.77;79.40
61506;BME280;47366;51.916;4.574;2022-09-09T00:38:19;100766.13;;;15.76;79.97
61506;BME280;47366;51.916;4.574;2022-09-09T00:41:10;100768.34;;;15.70;80.05
61506;BME280;47366;51.916;4.574;2022-09-09T00:43:40;100756.69;;;15.68;79.42
61506;BME280;47366;51.916;4.574;2022-09-09T00:54:19;100764.53;;;15.73;80.23
61506;BME280;47366;51.916;4.574;2022-09-09T00:57:22;100769.31;;;15.69;80.25
61506;BME280;47366;51.916;4.574;2022-09-09T00:59:57;100767.38;;;15.71;79.67
61506;BME280;47366;51.916;4.574;2022-09-09T01:02:31;100764.63;;;15.71;79.57
61506;BME280;47366;51.916;4.574;2022-09-09T01:07:56;100747.28;;;15.61;80.37
61506;BME280;47366;51.916;4.574;2022-09-09T01:11:00;100753.44;;;15.63;79.81
61506;BME280;47366;51.916;4.574;2022-09-09T01:13:33;100742.44;;;15.54;80.57
61506;BME280;47366;51.916;4.574;2022-09-09T01:16:02;100739.84;;;15.52;80.69
61506;BME280;47366;51.916;4.574;2022-09-09T01:18:44;100737.59;;;15.57;81.06
61506;BME280;47366;51.916;4.574;2022-09-09T01:27:02;100733.84;;;15.58;80.29
61506;BME280;47366;51.916;4.574;2022-09-09T01:29:29;100725.28;;;15.63;80.71
61506;BME280;47366;51.916;4.574;2022-09-09T01:31:57;100731.13;;;15.58;80.17
61506;BME280;47366;51.916;4.574;2022-09-09T01:34:38;100728.28;;;15.60;80.33
61506;BME280;47366;51.916;4.574;2022-09-09T01:37:09;100742.69;;;15.62;80.79
61506;BME280;47366;51.916;4.574;2022-09-09T01:39:37;100732.72;;;15.61;79.35
61506;BME280;47366;51.916;4.574;2022-09-09T01:42:06;100723.78;;;15.59;80.00
61506;BME280;47366;51.916;4.574;2022-09-09T01:44:34;100719.72;;;15.53;80.07
61506;BME280;47366;51.916;4.574;2022-09-09T01:47:00;100720.88;;;15.50;80.18
61506;BME280;47366;51.916;4.574;2022-09-09T01:49:26;100724.09;;;15.44;81.02
61506;BME280;47366;51.916;4.574;2022-09-09T01:51:53;100717.03;;;15.42;80.74
61506;BME280;47366;51.916;4.574;2022-09-09T01:54:23;100719.53;;;15.45;81.32
61506;BME280;47366;51.916;4.574;2022-09-09T02:00:06;100718.63;;;15.44;80.89
61506;BME280;47366;51.916;4.574;2022-09-09T02:05:36;100725.19;;;15.53;80.02
61506;BME280;47366;51.916;4.574;2022-09-09T02:08:11;100719.00;;;15.51;80.88
61506;BME280;47366;51.916;4.574;2022-09-09T02:13:11;100711.28;;;15.56;80.63
61506;BME280;47366;51.916;4.574;2022-09-09T02:15:56;100715.88;;;15.56;80.27
61506;BME280;47366;51.916;4.574;2022-09-09T02:18:27;100712.94;;;15.47;80.63
61506;BME280;47366;51.916;4.574;2022-09-09T02:20:55;100704.00;;;15.45;81.23
61506;BME280;47366;51.916;4.574;2022-09-09T02:23:21;100709.34;;;15.47;81.24
61506;BME280;47366;51.916;4.574;2022-09-09T02:25:48;100708.34;;;15.48;80.29
61506;BME280;47366;51.916;4.574;2022-09-09T02:28:15;100695.69;;;15.47;81.15
61506;BME280;47366;51.916;4.574;2022-09-09T02:30:42;100701.88;;;15.49;80.39
61506;BME280;47366;51.916;4.574;2022-09-09T02:33:11;100692.81;;;15.48;80.16
61506;BME280;47366;51.916;4.574;2022-09-09T02:35:39;100684.78;;;15.47;80.87
61506;BME280;47366;51.916;4.574;2022-09-09T02:38:10;100677.84;;;15.43;80.66
61506;BME280;47366;51.916;4.574;2022-09-09T02:40:38;100681.91;;;15.48;80.89
61506;BME280;47366;51.916;4.574;2022-09-09T02:43:03;100678.59;;;15.45;81.26
61506;BME280;47366;51.916;4.574;2022-09-09T02:45:41;100678.44;;;15.46;81.20
61506;BME280;47366;51.916;4.574;2022-09-09T02:48:14;100687.50;;;15.47;80.77
61506;BME280;47366;51.916;4.574;2022-09-09T02:53:51;100683.03;;;15.46;81.13
61506;BME280;47366;51.916;4.574;2022-09-09T02:56:21;100688.38;;;15.47;80.58
61506;BME280;47366;51.916;4.574;2022-09-09T02:58:50;100683.78;;;15.48;80.29
61506;BME280;47366;51.916;4.574;2022-09-09T03:01:17;100673.13;;;15.45;80.59
61506;BME280;47366;51.916;4.574;2022-09-09T03:03:42;100682.91;;;15.47;80.43
61506;BME280;47366;51.916;4.574;2022-09-09T03:06:09;100676.59;;;15.47;80.39
61506;BME280;47366;51.916;4.574;2022-09-09T03:08:37;100674.72;;;15.47;80.43
61506;BME280;47366;51.916;4.574;2022-09-09T03:11:02;100672.00;;;15.47;79.84
61506;BME280;47366;51.916;4.574;2022-09-09T03:13:27;100678.31;;;15.48;79.64
61506;BME280;47366;51.916;4.574;2022-09-09T03:15:53;100677.56;;;15.46;80.18
61506;BME280;47366;51.916;4.574;2022-09-09T03:18:18;100676.09;;;15.42;79.70
61506;BME280;47366;51.916;4.574;2022-09-09T03:20:45;100679.31;;;15.47;79.89
61506;BME280;47366;51.916;4.574;2022-09-09T03:23:14;100678.59;;;15.45;79.63
61506;BME280;47366;51.916;4.574;2022-09-09T03:25:39;100674.38;;;15.41;79.80
61506;BME280;47366;51.916;4.574;2022-09-09T03:28:04;100677.09;;;15.41;79.99
61506;BME280;47366;51.916;4.574;2022-09-09T03:30:30;100671.91;;;15.38;80.22
61506;BME280;47366;51.916;4.574;2022-09-09T03:32:55;100666.19;;;15.41;80.26
61506;BME280;47366;51.916;4.574;2022-09-09T03:35:20;100663.97;;;15.35;80.01
61506;BME280;47366;51.916;4.574;2022-09-09T03:37:46;100666.69;;;15.35;80.42
61506;BME280;47366;51.916;4.574;2022-09-09T03:40:12;100664.69;;;15.37;80.68
61506;BME280;47366;51.916;4.574;2022-09-09T03:42:38;100674.63;;;15.38;80.20
61506;BME280;47366;51.916;4.574;2022-09-09T03:45:08;100671.44;;;15.33;80.75
61506;BME280;47366;51.916;4.574;2022-09-09T03:47:34;100671.69;;;15.29;80.51
61506;BME280;47366;51.916;4.574;2022-09-09T03:50:00;100668.47;;;15.24;81.00
61506;BME280;47366;51.916;4.574;2022-09-09T03:52:25;100673.06;;;15.24;80.73
61506;BME280;47366;51.916;4.574;2022-09-09T03:54:52;100663.28;;;15.21;81.60
61506;BME280;47366;51.916;4.574;2022-09-09T03:57:18;100667.72;;;15.22;81.28
61506;BME280;47366;51.916;4.574;2022-09-09T03:59:43;100658.81;;;15.20;80.61
61506;BME280;47366;51.916;4.574;2022-09-09T04:02:09;100658.09;;;15.18;81.03
61506;BME280;47366;51.916;4.574;2022-09-09T04:04:35;100655.47;;;15.17;80.83
61506;BME280;47366;51.916;4.574;2022-09-09T04:07:00;100654.63;;;15.16;80.82
61506;BME280;47366;51.916;4.574;2022-09-09T04:09:31;100659.94;;;15.18;80.87
61506;BME280;47366;51.916;4.574;2022-09-09T04:11:57;100644.69;;;15.15;81.54
61506;BME280;47366;51.916;4.574;2022-09-09T04:14:22;100656.47;;;15.16;81.08
61506;BME280;47366;51.916;4.574;2022-09-09T04:16:47;100645.06;;;15.11;81.07
61506;BME280;47366;51.916;4.574;2022-09-09T04:19:13;100654.84;;;15.13;81.50
61506;BME280;47366;51.916;4.574;2022-09-09T04:21:40;100649.41;;;15.13;80.89
61506;BME280;47366;51.916;4.574;2022-09-09T04:24:07;100650.41;;;15.12;81.61
61506;BME280;47366;51.916;4.574;2022-09-09T04:26:33;100638.63;;;15.12;81.32
61506;BME280;47366;51.916;4.574;2022-09-09T04:28:59;100641.59;;;15.08;80.89
61506;BME280;47366;51.916;4.574;2022-09-09T04:31:25;100646.94;;;15.10;81.29
61506;BME280;47366;51.916;4.574;2022-09-09T04:33:50;100633.41;;;15.08;81.21
61506;BME280;47366;51.916;4.574;2022-09-09T04:36:17;100637.03;;;15.09;81.24
61506;BME280;47366;51.916;4.574;2022-09-09T04:38:43;100626.63;;;15.03;81.93
61506;BME280;47366;51.916;4.574;2022-09-09T04:41:09;100626.50;;;15.04;81.34
61506;BME280;47366;51.916;4.574;2022-09-09T04:43:36;100625.13;;;14.99;82.55
61506;BME280;47366;51.916;4.574;2022-09-09T04:46:02;100625.88;;;15.01;82.26
61506;BME280;47366;51.916;4.574;2022-09-09T04:48:27;100633.78;;;15.04;81.93
61506;BME280;47366;51.916;4.574;2022-09-09T04:50:57;100620.31;;;15.02;81.78
61506;BME280;47366;51.916;4.574;2022-09-09T04:53:23;100629.34;;;15.03;82.51
61506;BME280;47366;51.916;4.574;2022-09-09T04:55:48;100631.34;;;15.01;82.58
61506;BME280;47366;51.916;4.574;2022-09-09T04:58:14;100630.59;;;14.99;82.38
61506;BME280;47366;51.916;4.574;2022-09-09T05:00:40;100622.69;;;14.96;82.81
61506;BME280;47366;51.916;4.574;2022-09-09T05:03:06;100626.41;;;14.95;82.48
61506;BME280;47366;51.916;4.574;2022-09-09T05:05:32;100623.81;;;14.93;82.38
61506;BME280;47366;51.916;4.574;2022-09-09T05:08:02;100623.69;;;14.95;82.28
61506;BME280;47366;51.916;4.574;2022-09-09T05:10:28;100621.19;;;14.92;83.51
61506;BME280;47366;51.916;4.574;2022-09-09T05:12:53;100616.75;;;14.91;83.07
61506;BME280;47366;51.916;4.574;2022-09-09T05:15:19;100623.81;;;14.93;82.93
61506;BME280;47366;51.916;4.574;2022-09-09T05:17:45;100617.22;;;14.96;82.44
61506;BME280;47366;51.916;4.574;2022-09-09T05:20:11;100611.03;;;14.94;82.67
61506;BME280;47366;51.916;4.574;2022-09-09T05:22:37;100617.34;;;14.94;82.75
61506;BME280;47366;51.916;4.574;2022-09-09T05:25:03;100609.31;;;14.93;83.22
61506;BME280;47366;51.916;4.574;2022-09-09T05:27:28;100612.28;;;14.90;83.37
61506;BME280;47366;51.916;4.574;2022-09-09T05:29:56;100612.63;;;14.96;83.15
61506;BME280;47366;51.916;4.574;2022-09-09T05:32:23;100608.03;;;14.97;83.00
61506;BME280;47366;51.916;4.574;2022-09-09T05:35:07;100609.50;;;15.01;83.04
61506;BME280;47366;51.916;4.574;2022-09-09T05:37:32;100620.31;;;15.02;82.97
61506;BME280;47366;51.916;4.574;2022-09-09T05:39:58;100618.16;;;15.06;82.85
61506;BME280;47366;51.916;4.574;2022-09-09T05:42:23;100625.38;;;15.07;83.27
61506;BME280;47366;51.916;4.574;2022-09-09T05:44:49;100623.50;;;15.07;83.16
61506;BME280;47366;51.916;4.574;2022-09-09T05:47:16;100625.13;;;15.10;83.26
61506;BME280;47366;51.916;4.574;2022-09-09T05:49:42;100625.59;;;15.15;82.91
61506;BME280;47366;51.916;4.574;2022-09-09T05:52:08;100623.22;;;15.22;82.55
61506;BME280;47366;51.916;4.574;2022-09-09T05:54:34;100615.38;;;15.28;82.01
61506;BME280;47366;51.916;4.574;2022-09-09T05:57:00;100618.56;;;15.34;81.77
61506;BME280;47366;51.916;4.574;2022-09-09T05:59:25;100617.44;;;15.36;82.43
61506;BME280;47366;51.916;4.574;2022-09-09T06:01:51;100621.91;;;15.37;82.00
61506;BME280;47366;51.916;4.574;2022-09-09T06:04:18;100624.22;;;15.42;81.74
61506;BME280;47366;51.916;4.574;2022-09-09T06:06:47;100626.84;;;15.43;81.56
61506;BME280;47366;51.916;4.574;2022-09-09T06:09:13;100620.53;;;15.43;82.05
61506;BME280;47366;51.916;4.574;2022-09-09T06:11:41;100630.91;;;15.49;82.12
61506;BME280;47366;51.916;4.574;2022-09-09T06:14:08;100627.56;;;15.45;81.66
61506;BME280;47366;51.916;4.574;2022-09-09T06:16:34;100629.56;;;15.43;82.38
61506;BME280;47366;51.916;4.574;2022-09-09T06:19:00;100627.19;;;15.50;82.21
61506;BME280;47366;51.916;4.574;2022-09-09T06:21:31;100625.03;;;15.54;82.16
61506;BME280;47366;51.916;4.574;2022-09-09T06:23:57;100630.84;;;15.60;81.83
61506;BME280;47366;51.916;4.574;2022-09-09T06:28:52;100628.47;;;15.67;81.92
61506;BME280;47366;51.916;4.574;2022-09-09T06:31:19;100629.06;;;15.70;81.72
61506;BME280;47366;51.916;4.574;2022-09-09T06:34:07;100625.59;;;15.68;81.65
61506;BME280;47366;51.916;4.574;2022-09-09T06:36:35;100627.97;;;15.73;81.31
61506;BME280;47366;51.916;4.574;2022-09-09T06:39:02;100631.56;;;15.74;81.30
61506;BME280;47366;51.916;4.574;2022-09-09T06:41:29;100626.84;;;15.76;81.70
61506;BME280;47366;51.916;4.574;2022-09-09T06:43:55;100627.53;;;15.78;81.39
61506;BME280;47366;51.916;4.574;2022-09-09T06:46:22;100627.41;;;15.79;80.85
61506;BME280;47366;51.916;4.574;2022-09-09T06:48:48;100630.88;;;15.81;80.89
61506;BME280;47366;51.916;4.574;2022-09-09T06:51:19;100640.81;;;15.82;81.31
61506;BME280;47366;51.916;4.574;2022-09-09T06:53:46;100631.47;;;15.85;81.01
61506;BME280;47366;51.916;4.574;2022-09-09T06:56:34;100641.88;;;15.91;81.70
61506;BME280;47366;51.916;4.574;2022-09-09T06:59:01;100635.66;;;15.89;81.54
61506;BME280;47366;51.916;4.574;2022-09-09T07:01:31;100637.03;;;15.95;80.88
61506;BME280;47366;51.916;4.574;2022-09-09T07:03:58;100629.69;;;15.95;80.61
61506;BME280;47366;51.916;4.574;2022-09-09T07:06:32;100638.63;;;15.97;80.64
61506;BME280;47366;51.916;4.574;2022-09-09T07:09:02;100624.97;;;15.97;80.32
61506;BME280;47366;51.916;4.574;2022-09-09T07:11:31;100629.53;;;15.97;80.96
61506;BME280;47366;51.916;4.574;2022-09-09T07:13:59;100623.81;;;16.00;81.20
61506;BME280;47366;51.916;4.574;2022-09-09T07:16:25;100616.59;;;15.99;80.79
61506;BME280;47366;51.916;4.574;2022-09-09T07:18:51;100624.69;;;16.00;80.86
61506;BME280;47366;51.916;4.574;2022-09-09T07:21:18;100628.16;;;16.02;80.43
61506;BME280;47366;51.916;4.574;2022-09-09T07:23:49;100624.41;;;16.03;80.65
61506;BME280;47366;51.916;4.574;2022-09-09T07:26:17;100624.41;;;16.03;80.18
61506;BME280;47366;51.916;4.574;2022-09-09T07:28:44;100629.00;;;16.03;80.28
61506;BME280;47366;51.916;4.574;2022-09-09T07:31:18;100629.75;;;16.05;80.27
61506;BME280;47366;51.916;4.574;2022-09-09T07:33:44;100622.41;;;16.05;80.39
61506;BME280;47366;51.916;4.574;2022-09-09T07:36:16;100628.72;;;16.06;80.20
61506;BME280;47366;51.916;4.574;2022-09-09T07:38:48;100633.47;;;16.04;80.29
61506;BME280;47366;51.916;4.574;2022-09-09T07:41:40;100630.03;;;16.02;80.17
61506;BME280;47366;51.916;4.574;2022-09-09T07:44:20;100637.47;;;16.00;80.53
61506;BME280;47366;51.916;4.574;2022-09-09T07:46:48;100626.69;;;15.98;80.55
61506;BME280;47366;51.916;4.574;2022-09-09T07:49:14;100629.28;;;16.00;80.74
61506;BME280;47366;51.916;4.574;2022-09-09T07:51:42;100642.53;;;16.04;80.42
61506;BME280;47366;51.916;4.574;2022-09-09T07:54:11;100635.03;;;16.06;80.51
61506;BME280;47366;51.916;4.574;2022-09-09T07:56:38;100633.06;;;16.08;80.43
61506;BME280;47366;51.916;4.574;2022-09-09T07:59:04;100624.84;;;16.08;80.32
61506;BME280;47366;51.916;4.574;2022-09-09T08:01:36;100627.19;;;16.13;80.53
61506;BME280;47366;51.916;4.574;2022-09-09T08:04:10;100631.91;;;16.11;80.23
61506;BME280;47366;51.916;4.574;2022-09-09T08:06:41;100631.78;;;16.12;80.02
61506;BME280;47366;51.916;4.574;2022-09-09T08:09:08;100628.19;;;16.12;80.25
61506;BME280;47366;51.916;4.574;2022-09-09T08:11:34;100633.50;;;16.13;80.13
61506;BME280;47366;51.916;4.574;2022-09-09T08:14:01;100628.66;;;16.17;80.29
61506;BME280;47366;51.916;4.574;2022-09-09T08:16:29;100637.59;;;16.19;80.10
61506;BME280;47366;51.916;4.574;2022-09-09T08:18:56;100639.19;;;16.22;80.24
61506;BME280;47366;51.916;4.574;2022-09-09T08:21:26;100635.59;;;16.21;79.99
61506;BME280;47366;51.916;4.574;2022-09-09T08:23:53;100639.19;;;16.22;79.95
61506;BME280;47366;51.916;4.574;2022-09-09T08:26:21;100641.63;;;16.25;79.95
61506;BME280;47366;51.916;4.574;2022-09-09T08:28:50;100639.06;;;16.23;80.26
61506;BME280;47366;51.916;4.574;2022-09-09T08:31:25;100637.19;;;16.24;80.24
61506;BME280;47366;51.916;4.574;2022-09-09T08:33:50;100641.78;;;16.23;80.12
61506;BME280;47366;51.916;4.574;2022-09-09T08:36:18;100640.66;;;16.26;80.09
61506;BME280;47366;51.916;4.574;2022-09-09T08:38:48;100638.38;;;16.31;79.61
61506;BME280;47366;51.916;4.574;2022-09-09T08:52:30;100643.94;;;16.29;79.47
61506;BME280;47366;51.916;4.574;2022-09-09T08:55:01;100642.25;;;16.28;79.91
61506;BME280;47366;51.916;4.574;2022-09-09T08:57:28;100653.63;;;16.33;80.30
61506;BME280;47366;51.916;4.574;2022-09-09T08:59:56;100651.75;;;16.34;79.78
61506;BME280;47366;51.916;4.574;2022-09-09T09:02:47;100651.00;;;16.32;79.76
61506;BME280;47366;51.916;4.574;2022-09-09T09:05:25;100653.47;;;16.35;79.76
61506;BME280;47366;51.916;4.574;2022-09-09T09:10:53;100650.31;;;16.40;79.38
61506;BME280;47366;51.916;4.574;2022-09-09T09:16:33;100665.13;;;16.37;80.19
61506;BME280;47366;51.916;4.574;2022-09-09T09:19:00;100658.22;;;16.33;79.80
61506;BME280;47366;51.916;4.574;2022-09-09T09:21:47;100657.09;;;16.35;79.99
61506;BME280;47366;51.916;4.574;2022-09-09T09:24:53;100666.03;;;16.38;80.30
61506;BME280;47366;51.916;4.574;2022-09-09T09:27:35;100665.41;;;16.34;80.94
61506;BME280;47366;51.916;4.574;2022-09-09T09:30:04;100664.28;;;16.37;80.91
61506;BME280;47366;51.916;4.574;2022-09-09T09:32:33;100658.81;;;16.37;80.76
61506;BME280;47366;51.916;4.574;2022-09-09T09:35:01;100655.94;;;16.38;80.92
61506;BME280;47366;51.916;4.574;2022-09-09T09:37:34;100648.31;;;16.42;80.65
61506;BME280;47366;51.916;4.574;2022-09-09T09:40:18;100647.78;;;16.48;80.67
61506;BME280;47366;51.916;4.574;2022-09-09T09:43:02;100648.38;;;16.61;80.42
61506;BME280;47366;51.916;4.574;2022-09-09T09:45:33;100640.44;;;16.79;78.94
61506;BME280;47366;51.916;4.574;2022-09-09T09:48:08;100639.19;;;17.03;79.36
61506;BME280;47366;51.916;4.574;2022-09-09T09:50:34;100639.50;;;17.38;78.08
61506;BME280;47366;51.916;4.574;2022-09-09T09:53:03;100627.69;;;17.48;77.69
61506;BME280;47366;51.916;4.574;2022-09-09T09:55:33;100638.34;;;17.51;77.13
61506;BME280;47366;51.916;4.574;2022-09-09T09:58:14;100632.88;;;17.51;76.53
61506;BME280;47366;51.916;4.574;2022-09-09T10:00:50;100629.59;;;17.47;76.80
61506;BME280;47366;51.916;4.574;2022-09-09T10:03:25;100629.72;;;17.46;77.15
61506;BME280;47366;51.916;4.574;2022-09-09T10:05:52;100628.69;;;17.47;77.07
61506;BME280;47366;51.916;4.574;2022-09-09T10:08:18;100637.63;;;17.49;77.37
61506;BME280;47366;51.916;4.574;2022-09-09T10:13:22;100640.66;;;17.26;78.72
61506;BME280;47366;51.916;4.574;2022-09-09T10:16:10;100637.31;;;17.13;79.70
61506;BME280;47366;51.916;4.574;2022-09-09T10:21:52;100646.38;;;17.04;80.32
61506;BME280;47366;51.916;4.574;2022-09-09T10:27:36;100646.25;;;16.95;81.42
61506;BME280;47366;51.916;4.574;2022-09-09T10:39:04;100643.31;;;16.87;81.50
61506;BME280;47366;51.916;4.574;2022-09-09T10:44:12;100644.34;;;16.86;81.37
61506;BME280;47366;51.916;4.574;2022-09-09T10:47:05;100649.75;;;16.76;81.96
61506;BME280;47366;51.916;4.574;2022-09-09T10:52:33;100643.97;;;16.70;82.44
61506;BME280;47366;51.916;4.574;2022-09-09T10:55:17;100645.44;;;16.74;82.82
61506;BME280;47366;51.916;4.574;2022-09-09T10:57:48;100645.97;;;16.68;83.06
61506;BME280;47366;51.916;4.574;2022-09-09T11:00:24;100637.50;;;16.71;83.26
61506;BME280;47366;51.916;4.574;2022-09-09T11:02:55;100639.00;;;16.85;82.93
61506;BME280;47366;51.916;4.574;2022-09-09T11:05:29;100638.06;;;17.15;83.02
61506;BME280;47366;51.916;4.574;2022-09-09T11:07:58;100632.59;;;17.25;82.73
61506;BME280;47366;51.916;4.574;2022-09-09T11:10:37;100632.59;;;17.25;81.74
61506;BME280;47366;51.916;4.574;2022-09-09T11:18:48;100640.66;;;17.75;79.88
61506;BME280;47366;51.916;4.574;2022-09-09T11:21:22;100639.38;;;17.69;79.68
61506;BME280;47366;51.916;4.574;2022-09-09T11:23:53;100638.22;;;17.81;79.16
61506;BME280;47366;51.916;4.574;2022-09-09T11:26:30;100639.94;;;17.82;78.58
61506;BME280;47366;51.916;4.574;2022-09-09T11:32:23;100654.50;;;17.54;79.10
61506;BME280;47366;51.916;4.574;2022-09-09T11:35:30;100651.63;;;17.46;79.80
61506;BME280;47366;51.916;4.574;2022-09-09T11:38:21;100649.00;;;17.34;80.25
61506;BME280;47366;51.916;4.574;2022-09-09T11:41:01;100647.72;;;17.29;80.35
61506;BME280;47366;51.916;4.574;2022-09-09T11:46:45;100641.66;;;17.15;80.68
61506;BME280;47366;51.916;4.574;2022-09-09T11:49:29;100649.00;;;17.15;81.75
61506;BME280;47366;51.916;4.574;2022-09-09T11:52:20;100640.34;;;17.10;80.86
61506;BME280;47366;51.916;4.574;2022-09-09T11:54:48;100643.09;;;17.10;81.68
61506;BME280;47366;51.916;4.574;2022-09-09T11:57:35;100633.44;;;17.06;81.63
61506;BME280;47366;51.916;4.574;2022-09-09T12:00:01;100642.38;;;17.08;81.76
61506;BME280;47366;51.916;4.574;2022-09-09T12:02:28;100626.25;;;17.05;82.18
61506;BME280;47366;51.916;4.574;2022-09-09T12:05:00;100636.31;;;17.04;82.81
61506;BME280;47366;51.916;4.574;2022-09-09T12:07:42;100637.16;;;16.95;82.71
61506;BME280;47366;51.916;4.574;2022-09-09T12:10:32;100647.81;;;16.98;82.91
61506;BME280;47366;51.916;4.574;2022-09-09T12:13:18;100649.97;;;16.94;83.62
61506;BME280;47366;51.916;4.574;2022-09-09T12:15:49;100648.78;;;16.87;84.01
61506;BME280;47366;51.916;4.574;2022-09-09T12:18:22;100647.94;;;16.87;84.27
61506;BME280;47366;51.916;4.574;2022-09-09T12:21:02;100651.28;;;16.90;85.05
61506;BME280;47366;51.916;4.574;2022-09-09T12:26:12;100656.34;;;17.05;84.62
61506;BME280;47366;51.916;4.574;2022-09-09T12:28:56;100652.75;;;17.14;84.96
61506;BME280;47366;51.916;4.574;2022-09-09T12:31:44;100661.13;;;17.22;84.75
61506;BME280;47366;51.916;4.574;2022-09-09T12:34:20;100666.28;;;17.25;83.83
61506;BME280;47366;51.916;4.574;2022-09-09T12:36:58;100674.94;;;17.20;83.72
61506;BME280;47366;51.916;4.574;2022-09-09T12:39:33;100672.47;;;17.08;84.08
61506;BME280;47366;51.916;4.574;2022-09-09T12:42:00;100670.88;;;17.05;84.04
61506;BME280;47366;51.916;4.574;2022-09-09T12:44:26;100662.94;;;16.92;84.57
61506;BME280;47366;51.916;4.574;2022-09-09T12:46:58;100672.88;;;16.93;85.47
61506;BME280;47366;51.916;4.574;2022-09-09T12:49:36;100678.63;;;16.90;86.38
61506;BME280;47366;51.916;4.574;2022-09-09T12:52:12;100678.44;;;16.82;85.86
61506;BME280;47366;51.916;4.574;2022-09-09T12:54:44;100678.72;;;16.79;85.88
61506;BME280;47366;51.916;4.574;2022-09-09T12:57:12;100663.31;;;16.78;86.04
61506;BME280;47366;51.916;4.574;2022-09-09T12:59:40;100668.03;;;16.76;86.40
61506;BME280;47366;51.916;4.574;2022-09-09T13:02:25;100664.38;;;16.66;87.58
61506;BME280;47366;51.916;4.574;2022-09-09T13:04:51;100659.94;;;16.65;86.71
61506;BME280;47366;51.916;4.574;2022-09-09T13:07:19;100682.13;;;16.71;86.18
61506;BME280;47366;51.916;4.574;2022-09-09T13:09:45;100669.59;;;16.69;86.75
61506;BME280;47366;51.916;4.574;2022-09-09T13:12:21;100674.47;;;16.65;86.29
61506;BME280;47366;51.916;4.574;2022-09-09T13:14:50;100673.94;;;16.71;87.00
61506;BME280;47366;51.916;4.574;2022-09-09T13:17:26;100672.28;;;16.90;86.78
61506;BME280;47366;51.916;4.574;2022-09-09T13:19:54;100666.28;;;17.15;86.97
61506;BME280;47366;51.916;4.574;2022-09-09T13:22:37;100675.69;;;17.52;86.19
61506;BME280;47366;51.916;4.574;2022-09-09T13:27:36;100691.56;;;17.97;86.15
61506;BME280;47366;51.916;4.574;2022-09-09T13:35:35;100694.31;;;17.87;85.24
61506;BME280;47366;51.916;4.574;2022-09-09T13:38:10;100679.72;;;17.77;84.03
61506;BME280;47366;51.916;4.574;2022-09-09T13:40:35;100680.47;;;17.69;85.04
61506;BME280;47366;51.916;4.574;2022-09-09T13:43:02;100690.56;;;17.69;84.65
61506;BME280;47366;51.916;4.574;2022-09-09T13:45:28;100699.47;;;17.61;84.90
61506;BME280;47366;51.916;4.574;2022-09-09T13:47:54;100702.81;;;17.55;85.50
61506;BME280;47366;51.916;4.574;2022-09-09T13:50:27;100708.13;;;17.47;85.22
61506;BME280;47366;51.916;4.574;2022-09-09T13:52:55;100696.88;;;17.40;85.92
61506;BME280;47366;51.916;4.574;2022-09-09T13:55:24;100679.44;;;17.31;86.02
61506;BME280;47366;51.916;4.574;2022-09-09T13:58:02;100690.38;;;17.31;85.99
61506;BME280;47366;51.916;4.574;2022-09-09T14:00:32;100684.31;;;17.28;86.05
61506;BME280;47366;51.916;4.574;2022-09-09T14:02:59;100683.75;;;17.24;86.83
61506;BME280;47366;51.916;4.574;2022-09-09T14:05:27;100684.72;;;17.23;86.10
61506;BME280;47366;51.916;4.574;2022-09-09T14:07:53;100678.56;;;17.21;86.53
61506;BME280;47366;51.916;4.574;2022-09-09T14:10:18;100671.34;;;17.20;86.31
61506;BME280;47366;51.916;4.574;2022-09-09T14:12:43;100673.09;;;17.21;86.17
61506;BME280;47366;51.916;4.574;2022-09-09T14:15:10;100676.38;;;17.15;86.40
61506;BME280;47366;51.916;4.574;2022-09-09T14:17:45;100671.91;;;17.14;87.04
61506;BME280;47366;51.916;4.574;2022-09-09T14:20:11;100670.47;;;17.10;86.23
61506;BME280;47366;51.916;4.574;2022-09-09T14:22:37;100676.09;;;17.18;86.50
61506;BME280;47366;51.916;4.574;2022-09-09T14:25:04;100681.28;;;17.21;86.37
61506;BME280;47366;51.916;4.574;2022-09-09T14:27:30;100677.53;;;17.22;86.61
61506;BME280;47366;51.916;4.574;2022-09-09T14:29:55;100686.47;;;17.24;85.84
61506;BME280;47366;51.916;4.574;2022-09-09T14:32:22;100681.88;;;17.25;86.84
61506;BME280;47366;51.916;4.574;2022-09-09T14:34:48;100680.88;;;17.26;86.86
61506;BME280;47366;51.916;4.574;2022-09-09T14:37:18;100690.94;;;17.25;86.83
61506;BME280;47366;51.916;4.574;2022-09-09T14:39:44;100686.47;;;17.24;86.30
61506;BME280;47366;51.916;4.574;2022-09-09T14:42:14;100699.44;;;17.32;86.14
61506;BME280;47366;51.916;4.574;2022-09-09T14:44:39;100696.41;;;17.25;85.67
61506;BME280;47366;51.916;4.574;2022-09-09T14:47:06;100698.00;;;17.28;86.32